AirNav   Everest Fuels
 
 1542 users online  

I44 Dahio Trotwood Airport
Dayton, Ohio, USA

GOING TO DAYTON?


FAA INFORMATION EFFECTIVE 30 DECEMBER 2021

Location

FAA Identifier: I44
Lat/Long: 39-45-57.2030N 084-20-35.8020W
39-45.953383N 084-20.596700W
39.7658897,-84.3432783
(estimated)
Elevation: 925 ft. / 282 m (estimated)
Variation: 04W (1985)
From city: 7 miles W of DAYTON, OH
Time zone: UTC -5 (UTC -4 during Daylight Saving Time)
Zip code: 45427

Airport Operations

Airport use: Open to the public
Activation date: 08/1971
Control tower: no
ARTCC: INDIANAPOLIS CENTER
FSS: DAYTON FLIGHT SERVICE STATION
NOTAMs facility: DAY (NOTAM-D service available)
Attendance: UNATNDD
Wind indicator: yes
Segmented circle: no

Airport Communications

CTAF/UNICOM: 122.8
COLUMBUS APPROACH: 118.85
COLUMBUS DEPARTURE: 118.85
CLASS C: 118.85
IC: 118.85
WX ASOS at DAY (10 nm NE): PHONE 937-415-6819
WX ASOS at MGY (12 nm SE): 118.375 (937-885-2171)
WX AWOS-3 at MWO (14 nm S): 120.025 (513-422-3505)
WX AWOS-3 at I19 (17 nm E): 118.525 (937-372-4668)
WX AWOS-3 at I68 (19 nm S): 120.55 (513-934-5500)

Nearby radio navigation aids

VOR radial/distance  VOR name  Freq  Var
DQNr172/15.2DAYTON VOR/DME114.5001W
MXQr313/32.2MIDWEST VOR/DME112.9004W
RODr209/34.2ROSEWOOD VORTAC117.5005W

 
NDB name  Hdg/Dist  Freq  Var  ID
BRUNY191/4.931506WAT .- -
ONIDA359/11.322304WMW -- .--
HOOK FIELD021/16.723904WHKF .... -.- ..-.

Airport Services

Bottled oxygen: NONE
Bulk oxygen: NONE

Runway Information

Runway 4/22

Dimensions: 2900 x 52 ft. / 884 x 16 m
Surface: asphalt, in poor condition
NUMEROUS CRACKS IN PAVEMENT WITH 3 FT VEGETATION.
Weight bearing capacity: 
Single wheel: 5000 LBS SINGLE WHEEL STRENGTH LIMIT PER ARPT MGR.
RUNWAY 4  RUNWAY 22
Latitude: 39-45.731333N39-46.081333N
Longitude: 084-20.787667W084-20.367667W
Elevation: 925.0 ft.925.0 ft.
Traffic pattern: leftleft
Runway end identifier lights: nono
Obstructions: 15 ft. crops, 201 ft. from runway
15 FT CROPS 0-200 FT DSTC, 0 FT BASE LEG.
65 ft. trees, 201 ft. from runway, 110 ft. left of centerline
40 FT TREES 0 FT FM RWY END 20-125 FT L; 15 FT CROPS 0 FT FM RWY END.

Airport Ownership and Management from official FAA records

Ownership: Privately-owned
Owner: S & S LAND & FARMS, LLC
1550 SOLDIERS HOME-WEST CARROLLTON
DAYTON, OH 45417
Phone 937-263-2676
Manager: STEVE RAUCH
1550 SOLDIERS HOME-WEST CARROLTON R
DAYTON, OH 45417
Phone (937) 604-2619
MGR CELL.

Additional Remarks

ULTRALIGHTS ON & INVOF ARPT.
COLUMBUS APCH CTL TEL# 614-338-8537.
RWY 04/22 NO MKG.
LDI (TET) INOP/UNREL.
RWY 04/22 15 FT CROPS, 6 FT FM RWY EDGE BOTH SIDES, ENTIRE LENGTH.
MOWED PATH FM RWY 04 END TO HGR AREA NOT SUITABLE FOR ACFT.
ARPT PHYS ADDR 1334 LUTHERAN CHURCH RD DAYTON OH 45417.
TXY FM MID FLD TO HGR AREA, 35 FT CLNC BTN 15 FT CROPS.

Instrument Procedures

There are no published instrument procedures at I44.

Some nearby airports with instrument procedures:

3I7 - Dayton-Phillipsburg Airport (9 nm N)
KDAY - James M Cox Dayton International Airport (10 nm NE)
KMGY - Dayton-Wright Brothers Airport (12 nm SE)
KFFO - Wright-Patterson Air Force Base (14 nm E)
KMWO - Middletown Regional Airport/Hook Field (14 nm S)
I19 - Greene County/Lewis A Jackson Regional Airport (17 nm E)
I68 - Warren County Airport/John Lane Field (19 nm S)
 
Loc | Ops | Rwys | IFR | FBO | Links
Com | Nav | Svcs | Stats | Notes
Area around I44 (Dahio Trotwood Airport)
 
Road maps at: MapQuest Bing Google
 
Aerial photo
WARNING: Photo may not be current or correct
Aerial photo of I44 (Dahio Trotwood Airport)
Photo taken 12-Oct-2014
looking southwest.

Do you have a better or more recent aerial photo of Dahio Trotwood Airport that you would like to share? If so, please send us your photo.

 
Sectional chart

 
Airport distance calculator
Flying to Dahio Trotwood Airport? Find the distance to fly.

From to I44

Sunrise and sunset
Times for 26-Jan-2022
 Local
(UTC-5)
 Zulu
(UTC)
Morning civil twilight07:2312:23
Sunrise07:5212:52
Sunset17:4822:48
Evening civil twilight18:1723:17

Current date and time
Zulu (UTC)  26-Jan-2022 18:04:46
Local (UTC-5)  26-Jan-2022 13:04:46
 
METAR
KDAY 
10nm NE 
261756Z 04004KT 10SM FEW030 M09/M16 A3045 RMK AO2 SLP332 T10891156 11089 21172 58006 $
KMGY 
11nm SE 
261753Z AUTO 00000KT 10SM CLR M08/M16 A3044 RMK AO2 SLP325 T10831161 11078 21156 58009
KMWO 
14nm S 
261755Z AUTO 13005KT 10SM CLR M08/M17 A3049 RMK AO2 T10781166 11076 21166
KFFO 
15nm E 
261756Z AUTO 30004KT 10SM CLR M08/M17 A3046 RMK AO2 SLP335 T10831167 11082 21169 58009
KI68 
19nm S 
261755Z AUTO 00000KT 10SM CLR M08/M15 A3046 RMK AO1 T10841150 11079 21158
TAF
KDAY 
10nm NE 
261121Z 2612/2712 28006KT P6SM FEW250 FM262000 26003KT P6SM FEW250 FM270800 19006KT P6SM SKC
KFFO 
15nm E 
261100Z 2611/2717 VRB06KT 9999 SKC QNH3040INS BECMG 2614/2615 30006KT 9999 FEW030 QNH3037INS BECMG 2621/2622 VRB04KT 9999 FEW200 QNH3023INS BECMG 2714/2715 21010G15KT 9999 FEW070 BKN095 510053 QNH3019INS TXM06/2620Z TNM17/2612Z
NOTAMs
Click for the latest NOTAMs
NOTAMs are issued by the DoD/FAA and will open in a separate window not controlled by AirNav.

 

 
 

Would you like to see your business listed on this page?

 If your business provides an interesting product or service to pilots, flight crews, aircraft, or users of the Dahio Trotwood Airport, you should consider listing it here.  To start the listing process, click on the button below
 
Add a business
 

Other Pages about Dahio Trotwood Airport

Update a link
 
Copyright © AirNav, LLC. All rights reserved. Privacy Policy  Contact